createdAt,value
2023-01-27T00:02:16.014Z,15.15
2023-01-27T00:04:47.993Z,18.55
2023-01-27T00:07:19.953Z,14.60
2023-01-27T00:09:51.955Z,16.52
2023-01-27T00:12:50.710Z,12.82
2023-01-27T00:15:22.738Z,16.48
2023-01-27T00:17:54.783Z,13.23
2023-01-27T00:20:46.192Z,14.65
2023-01-27T00:26:27.173Z,12.98
2023-01-27T00:28:59.104Z,11.65
2023-01-27T00:31:49.442Z,10.98
2023-01-27T00:36:53.356Z,7.57
2023-01-27T00:39:25.347Z,9.80
2023-01-27T00:41:57.360Z,11.20
2023-01-27T00:44:31.901Z,10.18
2023-01-27T00:47:04.079Z,5.82
2023-01-27T00:49:36.035Z,7.45
2023-01-27T00:52:07.962Z,6.30
2023-01-27T00:55:00.595Z,7.80
2023-01-27T00:57:32.551Z,6.28
2023-01-27T01:00:31.628Z,6.60
2023-01-27T01:03:03.856Z,7.10
2023-01-27T01:05:35.991Z,7.38
2023-01-27T01:08:07.978Z,7.32
2023-01-27T01:10:40.011Z,9.25
2023-01-27T01:13:12.141Z,9.50
2023-01-27T01:15:44.337Z,8.85
2023-01-27T01:18:16.775Z,7.95
2023-01-27T01:20:49.082Z,9.02
2023-01-27T01:23:21.136Z,6.55
2023-01-27T01:25:57.822Z,7.85
2023-01-27T01:29:02.421Z,12.60
2023-01-27T01:31:34.589Z,9.10
2023-01-27T01:34:06.654Z,8.45
2023-01-27T01:36:38.600Z,10.75
2023-01-27T01:39:10.599Z,7.45
2023-01-27T01:42:00.995Z,9.02
2023-01-27T01:44:33.260Z,6.75
2023-01-27T01:47:05.277Z,8.82
2023-01-27T01:49:40.306Z,7.82
2023-01-27T01:52:18.804Z,4.55
2023-01-27T01:54:55.120Z,6.10
2023-01-27T01:57:33.504Z,7.30
2023-01-27T02:00:09.759Z,4.80
2023-01-27T02:02:43.434Z,5.03
2023-01-27T02:05:24.579Z,5.28
2023-01-27T02:08:20.642Z,4.22
2023-01-27T02:10:54.555Z,4.13
2023-01-27T02:13:26.552Z,5.47
2023-01-27T02:15:58.595Z,4.05
2023-01-27T02:18:31.047Z,5.97
2023-01-27T02:21:04.589Z,4.63
2023-01-27T02:23:44.499Z,4.03
2023-01-27T02:26:23.627Z,4.03
2023-01-27T02:29:08.955Z,3.90
2023-01-27T02:31:41.799Z,4.22
2023-01-27T02:34:18.010Z,4.78
2023-01-27T02:36:57.421Z,6.60
2023-01-27T02:40:03.616Z,7.10
2023-01-27T02:42:35.571Z,6.82
2023-01-27T02:45:08.205Z,4.85
2023-01-27T02:47:41.698Z,6.63
2023-01-27T02:50:13.728Z,6.13
2023-01-27T02:52:45.705Z,16.08
2023-01-27T02:55:17.752Z,4.25
2023-01-27T02:57:49.726Z,8.60
2023-01-27T03:00:21.787Z,8.02
2023-01-27T03:03:32.810Z,6.47
2023-01-27T03:06:04.914Z,8.30
2023-01-27T03:08:37.168Z,4.40
2023-01-27T03:11:50.088Z,5.53
2023-01-27T03:14:22.218Z,6.07
2023-01-27T03:17:12.600Z,9.65
2023-01-27T03:20:01.626Z,8.52
2023-01-27T03:22:33.625Z,5.65
2023-01-27T03:25:06.457Z,7.40
2023-01-27T03:27:38.419Z,5.25
2023-01-27T03:30:11.643Z,7.78
2023-01-27T03:32:46.895Z,7.90
2023-01-27T03:35:19.134Z,5.22
2023-01-27T03:38:09.358Z,7.68
2023-01-27T03:41:40.679Z,9.68
2023-01-27T03:44:31.212Z,11.00
2023-01-27T03:47:03.771Z,6.10
2023-01-27T03:49:35.708Z,8.57
2023-01-27T03:52:32.587Z,9.70
2023-01-27T03:55:04.894Z,6.32
2023-01-27T03:57:38.307Z,5.13
2023-01-27T04:00:11.337Z,5.57
2023-01-27T05:31:47.461Z,8.82
2023-01-27T05:34:19.419Z,16.52
2023-01-27T05:36:52.062Z,10.10
2023-01-27T05:39:24.233Z,8.23
2023-01-27T05:41:56.429Z,14.30
2023-01-27T05:44:28.422Z,9.30
2023-01-27T05:47:00.419Z,9.50
2023-01-27T05:49:50.829Z,10.35
2023-01-27T05:52:22.812Z,8.10
2023-01-27T05:54:54.780Z,8.77
2023-01-27T05:57:26.783Z,9.90
2023-01-27T05:59:58.715Z,8.77
2023-01-27T06:02:30.756Z,10.32
2023-01-27T06:05:02.779Z,8.80
2023-01-27T06:07:34.750Z,8.93
2023-01-27T06:10:07.417Z,8.98
2023-01-27T06:12:39.351Z,11.82
2023-01-27T06:15:12.011Z,7.72
2023-01-27T06:17:55.038Z,8.88
2023-01-27T06:20:27.077Z,7.72
2023-01-27T06:22:59.195Z,9.07
2023-01-27T06:25:35.658Z,8.95
2023-01-27T06:28:10.783Z,8.48
2023-01-27T06:30:44.916Z,8.25
2023-01-27T06:33:17.105Z,8.13
2023-01-27T06:35:49.239Z,8.23
2023-01-27T06:38:21.794Z,7.95
2023-01-27T06:40:53.772Z,7.72
2023-01-27T06:43:25.911Z,8.25
2023-01-27T06:45:58.097Z,9.85
2023-01-27T06:48:30.793Z,7.97
2023-01-27T06:51:02.842Z,10.43
2023-01-27T06:53:37.474Z,9.45
2023-01-27T06:56:09.588Z,7.35
2023-01-27T06:58:42.786Z,9.32
2023-01-27T07:01:14.829Z,8.25
2023-01-27T07:03:46.927Z,7.75
2023-01-27T07:08:57.705Z,8.98
2023-01-27T07:11:29.677Z,9.68
2023-01-27T07:14:03.070Z,8.93
2023-01-27T07:16:35.137Z,9.38
2023-01-27T07:19:07.526Z,9.68
2023-01-27T07:21:39.974Z,11.77
2023-01-27T07:24:12.003Z,8.15
2023-01-27T07:26:48.225Z,11.10
2023-01-27T07:29:20.448Z,8.40
2023-01-27T07:31:52.494Z,12.68
2023-01-27T07:34:24.615Z,7.75
2023-01-27T07:37:53.267Z,9.23
2023-01-27T07:40:25.503Z,11.77
2023-01-27T07:43:02.358Z,14.65
2023-01-27T07:45:34.415Z,9.77
2023-01-27T07:48:24.197Z,8.07
2023-01-27T07:50:56.189Z,6.93
2023-01-27T07:53:28.432Z,8.10
2023-01-27T07:56:00.876Z,8.80
2023-01-27T07:58:54.229Z,9.90
2023-01-27T08:01:26.222Z,8.63
2023-01-27T08:04:02.302Z,15.50
2023-01-27T08:06:34.268Z,8.07
2023-01-27T08:09:07.013Z,7.10
2023-01-27T08:11:40.514Z,7.00
2023-01-27T08:14:12.614Z,6.38
2023-01-27T08:16:44.628Z,6.82
2023-01-27T08:19:16.757Z,6.72
2023-01-27T08:21:48.713Z,6.75
2023-01-27T08:24:20.704Z,8.55
2023-01-27T08:26:52.730Z,7.28
2023-01-27T08:29:25.016Z,7.10
2023-01-27T08:31:59.080Z,8.35
2023-01-27T08:34:31.151Z,5.32
2023-01-27T08:37:04.824Z,8.15
2023-01-27T08:39:36.839Z,7.97
2023-01-27T08:42:08.962Z,4.95
2023-01-27T08:44:40.946Z,7.05
2023-01-27T08:47:13.018Z,5.60
2023-01-27T08:49:46.132Z,6.05
2023-01-27T08:52:18.289Z,5.82
2023-01-27T08:54:51.403Z,5.47
2023-01-27T08:57:24.843Z,3.97
2023-01-27T08:59:56.939Z,5.65
2023-01-27T09:02:28.986Z,7.93
2023-01-27T09:05:01.195Z,4.50
2023-01-27T09:07:34.226Z,6.60
2023-01-27T09:10:14.464Z,4.88
2023-01-27T09:12:47.360Z,4.70
2023-01-27T09:15:19.422Z,6.30
2023-01-27T09:17:53.946Z,3.85
2023-01-27T09:20:26.199Z,3.88
2023-01-27T09:22:59.423Z,5.10
2023-01-27T09:25:32.107Z,4.65
2023-01-27T09:28:04.129Z,5.43
2023-01-27T09:30:40.926Z,6.80
2023-01-27T09:33:17.576Z,11.75
2023-01-27T09:36:15.706Z,4.50
2023-01-27T09:39:03.399Z,4.85
2023-01-27T09:41:55.448Z,8.95
2023-01-27T09:45:32.898Z,4.82
2023-01-27T09:48:24.831Z,6.65
2023-01-27T09:51:34.216Z,5.60
2023-01-27T09:54:39.821Z,4.60
2023-01-27T09:57:32.189Z,7.22
2023-01-27T10:01:03.606Z,4.20
2023-01-27T10:04:22.820Z,5.70
2023-01-27T10:07:24.544Z,3.53
2023-01-27T10:10:53.329Z,5.93
2023-01-27T10:13:46.407Z,8.65
2023-01-27T10:16:55.241Z,3.78
2023-01-27T10:19:30.040Z,2.65
2023-01-27T10:22:13.915Z,3.70
2023-01-27T10:24:57.300Z,4.03
2023-01-27T10:27:37.500Z,2.53
2023-01-27T10:33:15.245Z,2.95
2023-01-27T10:36:00.448Z,3.42
2023-01-27T10:39:07.459Z,2.70
2023-01-27T10:41:57.170Z,4.00
2023-01-27T10:45:09.799Z,2.55
2023-01-27T10:48:38.527Z,3.28
2023-01-27T10:51:22.011Z,5.90
2023-01-27T10:54:10.316Z,2.13
2023-01-27T10:56:59.897Z,2.15
2023-01-27T11:00:17.395Z,1.98
2023-01-27T11:03:28.474Z,2.35
2023-01-27T11:06:08.471Z,5.00
2023-01-27T11:08:46.459Z,3.15
2023-01-27T11:11:43.504Z,2.40
2023-01-27T11:14:32.394Z,2.28
2023-01-27T11:17:15.696Z,4.72
2023-01-27T11:20:06.687Z,3.78
2023-01-27T11:23:11.114Z,2.42
2023-01-27T11:26:28.912Z,3.78
2023-01-27T11:29:24.207Z,2.20
2023-01-27T11:32:19.249Z,2.38
2023-01-27T11:35:10.678Z,4.68
2023-01-27T11:38:15.015Z,4.15
2023-01-27T11:40:52.339Z,3.42
2023-01-27T11:43:30.354Z,2.40
2023-01-27T11:46:06.126Z,3.92
2023-01-27T11:48:47.693Z,2.67
2023-01-27T11:52:27.077Z,2.28
2023-01-27T11:55:14.328Z,2.35
2023-01-27T12:01:36.849Z,2.50
2023-01-27T12:04:46.488Z,3.00
2023-01-27T12:08:23.252Z,4.50
2023-01-27T12:10:55.241Z,2.88
2023-01-27T12:13:51.150Z,4.78
2023-01-27T12:16:29.960Z,2.40
2023-01-27T12:19:28.144Z,3.00
2023-01-27T12:22:07.195Z,3.30
2023-01-27T12:24:46.861Z,5.10
2023-01-27T12:28:24.057Z,3.50
2023-01-27T12:31:06.297Z,2.75
2023-01-27T12:33:45.993Z,2.67
2023-01-27T12:39:57.078Z,3.63
2023-01-27T12:42:38.488Z,5.75
2023-01-27T12:45:23.914Z,3.35
2023-01-27T12:48:30.786Z,3.05
2023-01-27T12:51:15.046Z,4.00
2023-01-27T12:54:38.506Z,2.70
2023-01-27T12:57:18.385Z,2.42
2023-01-27T12:59:57.463Z,2.95
2023-01-27T13:02:33.877Z,3.63
2023-01-27T13:05:08.336Z,3.47
2023-01-27T13:07:47.137Z,2.60
2023-01-27T13:10:24.901Z,4.03
2023-01-27T13:12:59.682Z,9.98
2023-01-27T13:15:32.399Z,2.20
2023-01-27T13:18:55.822Z,2.78
2023-01-27T13:21:39.871Z,3.05
2023-01-27T13:24:21.768Z,4.38
2023-01-27T13:26:55.252Z,2.53
2023-01-27T13:29:33.546Z,2.60
2023-01-27T13:32:18.083Z,7.30
2023-01-27T13:34:59.256Z,3.50
2023-01-27T13:38:52.810Z,4.88
2023-01-27T13:41:41.656Z,6.18
2023-01-27T13:44:41.829Z,5.20
2023-01-27T13:47:27.130Z,4.18
2023-01-27T13:50:20.814Z,4.57
2023-01-27T13:53:00.118Z,5.55
2023-01-27T13:55:56.792Z,7.70
2023-01-27T13:58:53.363Z,7.75
2023-01-27T14:02:26.097Z,5.20
2023-01-27T14:06:04.153Z,3.97
2023-01-27T14:09:52.480Z,5.43
2023-01-27T14:13:00.009Z,3.25
2023-01-27T14:16:22.742Z,5.32
2023-01-27T14:19:10.415Z,4.90
2023-01-27T14:22:42.016Z,4.32
2023-01-27T14:25:25.648Z,3.10
2023-01-27T14:28:10.841Z,4.05
2023-01-27T14:31:24.902Z,5.07
2023-01-27T14:34:51.504Z,5.88
2023-01-27T14:37:52.970Z,4.30
2023-01-27T14:41:12.336Z,7.63
2023-01-27T14:43:59.844Z,7.38
2023-01-27T14:46:54.717Z,7.85
2023-01-27T14:49:49.739Z,7.50
2023-01-27T14:53:05.946Z,4.03
2023-01-27T14:55:57.419Z,7.40
2023-01-27T14:58:54.833Z,8.57
2023-01-27T15:01:46.163Z,6.05
2023-01-27T15:05:13.885Z,8.30
2023-01-27T15:08:21.388Z,5.70
2023-01-27T15:11:33.347Z,4.80
2023-01-27T15:14:26.884Z,6.30
2023-01-27T15:17:29.704Z,6.40
2023-01-27T15:21:15.569Z,4.28
2023-01-27T15:24:07.063Z,7.53
2023-01-27T15:26:40.363Z,9.43
2023-01-27T15:29:16.259Z,4.85
2023-01-27T15:32:13.337Z,4.90
2023-01-27T15:34:54.037Z,5.90
2023-01-27T15:37:30.737Z,5.72
2023-01-27T15:40:13.333Z,7.82
2023-01-27T15:43:00.592Z,10.75
2023-01-27T15:45:38.070Z,4.30
2023-01-27T15:48:23.236Z,4.82
2023-01-27T15:51:06.979Z,4.50
2023-01-27T15:53:46.208Z,4.47
2023-01-27T15:56:18.468Z,4.45
2023-01-27T16:02:25.594Z,7.35
2023-01-27T16:05:15.463Z,5.20
2023-01-27T16:07:53.586Z,9.57
2023-01-27T16:10:32.181Z,7.03
2023-01-27T16:13:30.252Z,5.18
2023-01-27T16:16:17.912Z,4.97
2023-01-27T16:19:12.262Z,4.75
2023-01-27T16:21:53.330Z,6.88
2023-01-27T16:24:51.044Z,7.78
2023-01-27T16:27:56.101Z,7.93
2023-01-27T16:31:13.926Z,7.03
2023-01-27T16:34:14.554Z,6.35
2023-01-27T16:36:47.373Z,11.55
2023-01-27T16:39:31.505Z,8.15
2023-01-27T16:42:04.587Z,8.13
2023-01-27T16:44:47.624Z,4.10
2023-01-27T16:47:30.757Z,6.03
2023-01-27T16:50:03.060Z,10.00
2023-01-27T16:52:42.172Z,10.15
2023-01-27T16:55:22.220Z,7.38
2023-01-27T16:57:56.299Z,6.28
2023-01-27T17:00:33.101Z,6.90
2023-01-27T17:03:14.939Z,9.48
2023-01-27T17:05:52.592Z,16.90
2023-01-27T17:08:30.644Z,24.48
2023-01-27T17:11:17.719Z,13.90
2023-01-27T17:14:06.414Z,6.65
2023-01-27T17:16:45.556Z,22.15
2023-01-27T17:19:27.732Z,20.65
2023-01-27T17:22:03.334Z,8.90
2023-01-27T17:24:50.044Z,6.40
2023-01-27T17:31:37.391Z,5.63
2023-01-27T17:34:17.649Z,4.82
2023-01-27T17:37:36.651Z,6.03
2023-01-27T17:41:10.237Z,5.40
2023-01-27T17:43:44.772Z,7.90
2023-01-27T17:46:21.701Z,7.55
2023-01-27T17:49:16.717Z,12.15
2023-01-27T17:51:51.846Z,7.85
2023-01-27T17:54:30.507Z,9.48
2023-01-27T17:57:23.841Z,8.90
2023-01-27T18:41:42.001Z,18.33
2023-01-27T18:44:36.004Z,13.15
2023-01-27T18:58:06.648Z,18.65
2023-01-27T19:05:45.329Z,13.20
2023-01-27T19:20:45.312Z,12.75
2023-01-27T20:05:15.557Z,24.23
2023-01-27T21:48:56.381Z,15.07
2023-01-27T23:11:41.064Z,5.30
2023-01-27T23:50:28.461Z,6.65
